createdAt,value
2023-03-22T00:00:07.665Z,51.60
2023-03-22T00:02:37.243Z,51.70
2023-03-22T00:05:07.429Z,50.37
2023-03-22T00:07:37.777Z,48.77
2023-03-22T00:10:07.125Z,45.90
2023-03-22T00:12:35.599Z,50.70
2023-03-22T00:15:04.214Z,52.83
2023-03-22T00:17:32.948Z,50.43
2023-03-22T00:20:03.049Z,53.10
2023-03-22T00:22:31.582Z,48.23
2023-03-22T00:25:00.155Z,50.60
2023-03-22T00:27:28.618Z,56.83
2023-03-22T00:29:57.182Z,51.57
2023-03-22T00:32:26.856Z,54.90
2023-03-22T00:34:55.627Z,58.53
2023-03-22T00:37:27.979Z,57.70
2023-03-22T00:39:56.597Z,59.67
2023-03-22T00:42:25.069Z,52.87
2023-03-22T00:44:53.592Z,52.97
2023-03-22T00:47:23.159Z,55.30
2023-03-22T00:49:51.749Z,55.40
2023-03-22T00:52:21.650Z,59.93
2023-03-22T00:54:51.572Z,58.40
2023-03-22T00:57:20.710Z,67.10
2023-03-22T00:59:49.417Z,58.30
2023-03-22T01:02:18.150Z,70.50
2023-03-22T01:04:47.971Z,60.57
2023-03-22T01:07:21.650Z,53.87
2023-03-22T01:09:51.912Z,57.83
2023-03-22T01:12:21.285Z,62.87
2023-03-22T01:14:49.913Z,62.70
2023-03-22T01:17:18.373Z,61.87
2023-03-22T01:19:47.193Z,57.77
2023-03-22T01:22:15.841Z,62.33
2023-03-22T01:24:44.628Z,60.80
2023-03-22T01:27:14.473Z,65.70
2023-03-22T01:29:43.055Z,68.73
2023-03-22T01:32:11.700Z,59.90
2023-03-22T01:34:40.343Z,66.20
2023-03-22T01:37:09.076Z,58.47
2023-03-22T01:39:41.287Z,59.27
2023-03-22T01:42:15.926Z,63.97
2023-03-22T01:44:47.011Z,72.17
2023-03-22T01:47:15.701Z,67.17
2023-03-22T01:49:44.301Z,62.43
2023-03-22T01:52:15.917Z,72.67
2023-03-22T01:55:02.490Z,67.00
2023-03-22T01:57:51.900Z,73.63
2023-03-22T02:00:28.448Z,73.30
2023-03-22T02:03:37.679Z,69.80
2023-03-22T02:06:06.511Z,73.80
2023-03-22T02:08:35.377Z,75.97
2023-03-22T02:11:15.620Z,77.70
2023-03-22T02:13:58.600Z,77.53
2023-03-22T02:17:00.675Z,76.03
2023-03-22T02:19:45.521Z,80.20
2023-03-22T02:22:25.986Z,85.40
2023-03-22T02:25:13.361Z,81.83
2023-03-22T02:27:53.442Z,82.23
2023-03-22T02:30:41.684Z,82.20
2023-03-22T02:33:23.353Z,77.00
2023-03-22T02:35:57.290Z,78.23
2023-03-22T02:38:47.122Z,75.30
2023-03-22T02:41:18.928Z,77.43
2023-03-22T02:43:53.560Z,76.60
2023-03-22T02:46:24.890Z,78.20
2023-03-22T02:48:55.947Z,77.87
2023-03-22T02:51:27.282Z,85.03
2023-03-22T02:54:03.630Z,74.07
2023-03-22T02:56:39.378Z,79.13
2023-03-22T02:59:11.877Z,82.63
2023-03-22T03:01:42.345Z,76.23
2023-03-22T03:04:14.646Z,83.27
2023-03-22T03:06:46.104Z,78.37
2023-03-22T03:09:18.109Z,84.23
2023-03-22T03:11:47.646Z,78.73
2023-03-22T03:14:23.588Z,88.83
2023-03-22T03:16:55.113Z,73.80
2023-03-22T03:19:28.291Z,82.20
2023-03-22T03:22:00.662Z,83.57
2023-03-22T03:24:40.513Z,76.87
2023-03-22T03:27:15.307Z,82.80
2023-03-22T03:29:46.621Z,78.90
2023-03-22T03:32:22.250Z,83.20
2023-03-22T03:34:55.680Z,85.83
2023-03-22T03:37:26.404Z,86.93
2023-03-22T03:39:57.763Z,79.97
2023-03-22T03:42:29.081Z,86.43
2023-03-22T03:44:58.516Z,77.23
2023-03-22T03:47:27.635Z,74.13
2023-03-22T03:49:56.430Z,70.90
2023-03-22T03:52:26.280Z,76.67
2023-03-22T03:54:56.282Z,66.87
2023-03-22T03:57:30.694Z,68.97
2023-03-22T03:59:59.358Z,64.90
2023-03-22T04:02:48.466Z,73.70
2023-03-22T04:05:36.994Z,67.57
2023-03-22T04:08:05.787Z,70.33
2023-03-22T04:10:36.139Z,67.87
2023-03-22T04:13:04.713Z,63.80
2023-03-22T04:15:33.948Z,67.67
2023-03-22T04:18:07.135Z,72.53
2023-03-22T04:20:35.766Z,67.90
2023-03-22T04:23:04.250Z,67.00
2023-03-22T04:25:33.880Z,63.17
2023-03-22T04:28:10.881Z,70.87
2023-03-22T04:30:39.752Z,64.17
2023-03-22T04:33:27.114Z,63.43
2023-03-22T04:36:17.471Z,63.80
2023-03-22T04:39:06.785Z,65.87
2023-03-22T04:41:36.067Z,66.43
2023-03-22T04:44:06.469Z,59.97
2023-03-22T04:46:38.894Z,63.00
2023-03-22T04:49:08.836Z,54.37
2023-03-22T04:51:40.838Z,64.37
2023-03-22T04:54:29.685Z,65.93
2023-03-22T04:56:58.279Z,60.50
2023-03-22T04:59:30.694Z,60.03
2023-03-22T05:02:01.039Z,59.17
2023-03-22T05:04:34.806Z,60.30
2023-03-22T05:07:12.449Z,62.47
2023-03-22T05:09:50.313Z,61.73
2023-03-22T05:12:19.383Z,55.63
2023-03-22T05:15:27.441Z,65.90
2023-03-22T05:17:56.782Z,56.57
2023-03-22T05:20:25.986Z,57.27
2023-03-22T05:23:11.632Z,53.47
2023-03-22T05:25:45.220Z,54.70
2023-03-22T05:28:19.722Z,52.30
2023-03-22T05:31:10.991Z,57.57
2023-03-22T05:33:46.786Z,54.57
2023-03-22T05:36:18.906Z,51.03
2023-03-22T05:39:09.448Z,53.57
2023-03-22T05:41:38.058Z,53.63
2023-03-22T05:44:07.197Z,46.90
2023-03-22T05:46:40.397Z,47.73
2023-03-22T05:49:27.232Z,47.37
2023-03-22T05:51:56.593Z,55.10
2023-03-22T05:54:29.566Z,50.53
2023-03-22T05:56:59.663Z,46.17
2023-03-22T05:59:28.893Z,48.50
2023-03-22T06:01:59.145Z,43.93
2023-03-22T06:04:27.864Z,44.07
2023-03-22T06:06:59.573Z,46.83
2023-03-22T06:09:43.569Z,43.47
2023-03-22T06:12:22.661Z,45.43
2023-03-22T06:14:55.644Z,43.60
2023-03-22T06:17:45.868Z,41.63
2023-03-22T06:20:18.063Z,40.47
2023-03-22T06:22:53.293Z,40.10
2023-03-22T06:25:21.875Z,34.10
2023-03-22T06:27:51.377Z,32.60
2023-03-22T06:30:20.560Z,37.97
2023-03-22T06:33:21.228Z,38.60
2023-03-22T06:35:55.759Z,32.93
2023-03-22T06:38:37.882Z,32.17
2023-03-22T06:41:06.744Z,33.13
2023-03-22T06:43:35.570Z,37.17
2023-03-22T06:46:15.801Z,35.07
2023-03-22T06:48:56.342Z,30.97
2023-03-22T06:51:25.324Z,30.37
2023-03-22T06:53:53.803Z,34.05
2023-03-22T06:56:22.569Z,32.80
2023-03-22T06:58:54.759Z,28.33
2023-03-22T07:01:23.616Z,27.35
2023-03-22T07:03:52.659Z,28.45
2023-03-22T07:06:25.495Z,26.70
2023-03-22T07:08:54.053Z,28.58
2023-03-22T07:11:28.197Z,24.73
2023-03-22T07:14:04.553Z,27.38
2023-03-22T07:16:55.196Z,26.75
2023-03-22T07:19:25.010Z,26.10
2023-03-22T07:21:55.092Z,28.00
2023-03-22T07:24:24.728Z,20.77
2023-03-22T07:26:53.780Z,22.90
2023-03-22T07:29:26.504Z,22.60
2023-03-22T07:31:55.179Z,21.73
2023-03-22T07:34:27.826Z,26.77
2023-03-22T07:37:05.068Z,20.42
2023-03-22T07:39:33.936Z,22.85
2023-03-22T07:42:02.477Z,21.75
2023-03-22T07:44:57.368Z,23.27
2023-03-22T07:47:40.075Z,22.92
2023-03-22T07:50:24.710Z,28.50
2023-03-22T07:52:58.688Z,20.35
2023-03-22T07:55:27.663Z,24.30
2023-03-22T07:57:56.525Z,25.33
2023-03-22T08:00:25.641Z,26.27
2023-03-22T08:03:06.452Z,25.23
2023-03-22T08:06:04.359Z,22.33
2023-03-22T08:08:34.598Z,22.15
2023-03-22T08:11:03.182Z,24.58
2023-03-22T08:13:31.941Z,23.30
2023-03-22T08:16:01.325Z,21.95
2023-03-22T08:18:31.438Z,23.23
2023-03-22T08:21:01.152Z,26.80
2023-03-22T08:23:41.558Z,23.15
2023-03-22T08:26:29.665Z,23.98
2023-03-22T08:29:04.629Z,22.13
2023-03-22T08:31:36.534Z,25.02
2023-03-22T08:34:05.105Z,22.10
2023-03-22T08:36:33.785Z,24.48
2023-03-22T08:39:08.392Z,24.35
2023-03-22T08:42:00.041Z,21.13
2023-03-22T08:44:29.688Z,22.80
2023-03-22T08:46:58.711Z,23.40
2023-03-22T08:49:27.632Z,21.20
2023-03-22T08:52:02.503Z,22.65
2023-03-22T08:54:42.940Z,25.17
2023-03-22T08:57:29.822Z,20.85
2023-03-22T09:00:18.000Z,19.90
2023-03-22T09:02:55.404Z,23.33
2023-03-22T09:05:23.989Z,20.42
2023-03-22T09:07:53.734Z,19.13
2023-03-22T09:10:39.834Z,22.42
2023-03-22T09:13:13.370Z,19.63
2023-03-22T09:15:47.299Z,22.55
2023-03-22T09:18:24.347Z,22.05
2023-03-22T09:20:54.554Z,17.98
2023-03-22T09:23:27.803Z,20.42
2023-03-22T09:25:57.828Z,20.42
2023-03-22T09:28:27.457Z,19.05
2023-03-22T09:31:01.834Z,19.67
2023-03-22T09:33:31.934Z,21.73
2023-03-22T09:36:01.210Z,18.48
2023-03-22T09:38:34.162Z,20.60
2023-03-22T09:41:06.419Z,24.95
2023-03-22T09:43:38.909Z,19.95
2023-03-22T09:46:15.170Z,20.67
2023-03-22T09:48:44.753Z,22.60
2023-03-22T09:51:19.258Z,22.98
2023-03-22T09:53:47.826Z,19.63
2023-03-22T09:56:20.634Z,20.48
2023-03-22T09:58:51.202Z,22.65
2023-03-22T10:01:28.146Z,22.05
2023-03-22T10:04:06.351Z,19.63
2023-03-22T10:06:34.986Z,20.77
2023-03-22T10:09:10.111Z,22.30
2023-03-22T10:11:46.429Z,24.38
2023-03-22T10:14:32.286Z,24.88
2023-03-22T10:17:03.809Z,24.65
2023-03-22T10:19:35.324Z,20.98
2023-03-22T10:22:05.008Z,19.77
2023-03-22T10:24:34.781Z,19.05
2023-03-22T10:27:05.033Z,20.58
2023-03-22T10:29:37.164Z,22.15
2023-03-22T10:32:14.859Z,19.25
2023-03-22T10:34:44.037Z,16.98
2023-03-22T10:37:15.512Z,18.05
2023-03-22T10:39:46.709Z,19.27
2023-03-22T10:42:18.428Z,17.67
2023-03-22T10:44:49.250Z,17.13
2023-03-22T10:47:19.440Z,19.33
2023-03-22T10:49:49.859Z,17.00
2023-03-22T10:52:28.014Z,21.02
2023-03-22T10:55:01.253Z,17.88
2023-03-22T10:57:33.362Z,16.25
2023-03-22T11:00:01.898Z,18.40
2023-03-22T11:02:31.745Z,18.52
2023-03-22T11:05:01.048Z,18.40
2023-03-22T11:07:33.891Z,18.58
2023-03-22T11:10:21.850Z,20.77
2023-03-22T11:12:53.047Z,18.25
2023-03-22T11:15:26.249Z,19.50
2023-03-22T11:17:56.564Z,20.08
2023-03-22T11:20:25.111Z,17.45
2023-03-22T11:22:53.784Z,19.10
2023-03-22T11:25:24.572Z,15.80
2023-03-22T11:27:56.440Z,13.95
2023-03-22T11:30:25.797Z,16.10
2023-03-22T11:33:02.205Z,18.20
2023-03-22T11:35:32.054Z,16.92
2023-03-22T11:38:02.458Z,14.98
2023-03-22T11:40:32.542Z,15.70
2023-03-22T11:43:16.575Z,17.73
2023-03-22T11:45:46.017Z,14.60
2023-03-22T11:48:16.716Z,15.85
2023-03-22T11:50:46.435Z,16.90
2023-03-22T11:53:18.085Z,16.48
2023-03-22T11:55:47.204Z,17.13
2023-03-22T11:58:27.972Z,15.50
2023-03-22T12:00:57.601Z,17.55
2023-03-22T12:03:28.125Z,19.27
2023-03-22T12:05:57.198Z,16.75
2023-03-22T12:08:32.139Z,17.17
2023-03-22T12:11:03.804Z,15.43
2023-03-22T12:13:43.800Z,14.98
2023-03-22T12:16:16.013Z,17.33
2023-03-22T12:18:49.190Z,18.30
2023-03-22T12:21:18.318Z,18.25
2023-03-22T12:23:46.863Z,22.90
2023-03-22T12:26:17.714Z,88.25
2023-03-22T12:28:52.905Z,15.48
2023-03-22T12:31:23.846Z,15.52
2023-03-22T12:33:55.290Z,16.63
2023-03-22T12:36:29.183Z,15.80
2023-03-22T12:38:59.236Z,14.95
2023-03-22T12:41:28.748Z,16.42
2023-03-22T12:44:00.748Z,15.05
2023-03-22T12:46:32.761Z,15.27
2023-03-22T12:49:04.664Z,12.70
2023-03-22T12:51:33.233Z,13.32
2023-03-22T12:54:02.371Z,12.50
2023-03-22T12:56:37.836Z,16.98
2023-03-22T12:59:14.795Z,14.50
2023-03-22T13:01:47.757Z,14.65
2023-03-22T13:04:46.874Z,14.82
2023-03-22T13:07:18.413Z,16.00
2023-03-22T13:09:48.763Z,15.43
2023-03-22T13:12:33.757Z,13.13
2023-03-22T13:15:05.538Z,13.70
2023-03-22T13:17:46.967Z,12.52
2023-03-22T13:20:38.495Z,14.15
2023-03-22T13:23:28.301Z,14.25
2023-03-22T13:26:05.957Z,16.38
2023-03-22T13:28:38.312Z,14.30
2023-03-22T13:31:08.425Z,13.05
2023-03-22T13:33:38.859Z,14.82
2023-03-22T13:36:23.115Z,13.20
2023-03-22T13:38:56.791Z,13.02
2023-03-22T13:41:29.821Z,15.23
2023-03-22T13:43:59.015Z,14.68
2023-03-22T13:46:48.280Z,12.13
2023-03-22T13:49:44.590Z,13.48
2023-03-22T13:52:23.441Z,12.57
2023-03-22T13:54:54.151Z,12.98
2023-03-22T13:57:45.560Z,15.30
2023-03-22T14:00:21.115Z,12.43
2023-03-22T14:02:52.463Z,12.25
2023-03-22T14:05:25.568Z,18.67
2023-03-22T14:07:56.274Z,12.93
2023-03-22T14:10:26.627Z,12.57
2023-03-22T14:12:59.283Z,14.77
2023-03-22T14:15:28.598Z,11.43
2023-03-22T14:18:01.883Z,13.88
2023-03-22T14:20:33.464Z,14.27
